createdAt,value
2022-09-22T00:01:12.425Z,8.58
2022-09-22T00:03:41.452Z,8.59
2022-09-22T00:06:15.346Z,8.58
2022-09-22T00:08:48.863Z,8.57
2022-09-22T00:11:19.253Z,8.57
2022-09-22T00:13:48.623Z,8.56
2022-09-22T00:16:15.833Z,8.56
2022-09-22T00:18:43.825Z,8.58
2022-09-22T00:21:13.224Z,8.58
2022-09-22T00:23:44.947Z,8.58
2022-09-22T00:26:14.306Z,8.57
2022-09-22T00:28:43.084Z,8.55
2022-09-22T00:31:10.512Z,8.52
2022-09-22T00:33:40.764Z,8.50
2022-09-22T00:36:09.245Z,8.45
2022-09-22T00:38:40.646Z,8.44
2022-09-22T00:41:10.411Z,8.41
2022-09-22T00:43:38.502Z,8.40
2022-09-22T00:46:08.375Z,8.38
2022-09-22T00:48:37.804Z,8.37
2022-09-22T00:51:07.828Z,8.36
2022-09-22T00:53:35.768Z,8.34
2022-09-22T00:56:09.394Z,8.32
2022-09-22T00:58:40.118Z,8.29
2022-09-22T01:01:09.562Z,8.30
2022-09-22T01:03:39.235Z,8.28
2022-09-22T01:06:09.490Z,8.25
2022-09-22T01:08:37.695Z,8.22
2022-09-22T01:11:06.878Z,8.21
2022-09-22T01:13:56.835Z,8.20
2022-09-22T01:16:29.474Z,8.18
2022-09-22T01:19:11.781Z,8.16
2022-09-22T01:21:49.531Z,8.15
2022-09-22T01:24:31.118Z,8.14
2022-09-22T01:27:23.710Z,8.10
2022-09-22T01:30:08.545Z,8.12
2022-09-22T01:32:55.310Z,8.10
2022-09-22T01:35:31.797Z,8.12
2022-09-22T01:38:09.988Z,8.10
2022-09-22T01:40:51.704Z,8.08
2022-09-22T01:43:21.108Z,8.06
2022-09-22T01:45:48.825Z,8.06
2022-09-22T01:48:42.398Z,8.06
2022-09-22T01:51:18.400Z,8.07
2022-09-22T01:53:49.974Z,8.08
2022-09-22T01:56:19.602Z,8.06
2022-09-22T01:58:52.672Z,8.03
2022-09-22T02:01:20.435Z,8.04
2022-09-22T02:04:03.089Z,8.05
2022-09-22T02:06:37.478Z,8.05
2022-09-22T02:09:07.106Z,8.06
2022-09-22T02:11:34.986Z,8.07
2022-09-22T02:14:02.558Z,8.08
2022-09-22T02:16:31.014Z,8.08
2022-09-22T02:19:13.393Z,8.07
2022-09-22T02:21:43.818Z,8.09
2022-09-22T02:24:29.975Z,8.10
2022-09-22T02:26:58.784Z,8.07
2022-09-22T02:29:29.131Z,8.08
2022-09-22T02:31:57.889Z,8.10
2022-09-22T02:34:24.510Z,8.11
2022-09-22T02:37:12.432Z,8.12
2022-09-22T02:39:42.336Z,8.10
2022-09-22T02:42:31.884Z,8.09
2022-09-22T02:45:00.969Z,8.08
2022-09-22T02:47:46.103Z,8.07
2022-09-22T02:50:15.682Z,8.04
2022-09-22T02:52:43.596Z,8.03
2022-09-22T02:55:10.946Z,8.06
2022-09-22T02:57:37.376Z,8.04
2022-09-22T03:00:05.956Z,8.00
2022-09-22T03:02:33.423Z,8.00
2022-09-22T03:05:01.664Z,7.98
2022-09-22T03:07:29.546Z,7.98
2022-09-22T03:09:57.363Z,8.00
2022-09-22T03:12:24.992Z,7.98
2022-09-22T03:14:53.048Z,7.97
2022-09-22T03:17:20.536Z,7.97
2022-09-22T03:19:47.918Z,7.96
2022-09-22T03:22:15.488Z,7.97
2022-09-22T03:24:43.080Z,7.94
2022-09-22T03:27:10.809Z,7.95
2022-09-22T03:29:38.211Z,7.90
2022-09-22T03:32:04.699Z,7.90
2022-09-22T03:34:31.130Z,7.89
2022-09-22T03:36:58.818Z,7.88
2022-09-22T03:39:26.702Z,7.89
2022-09-22T03:41:54.579Z,7.87
2022-09-22T03:44:22.387Z,7.81
2022-09-22T03:46:50.197Z,7.80
2022-09-22T03:49:17.626Z,7.79
2022-09-22T03:51:45.257Z,7.78
2022-09-22T03:54:13.057Z,7.79
2022-09-22T03:56:40.670Z,7.84
2022-09-22T03:59:10.349Z,7.83
2022-09-22T04:01:38.252Z,7.84
2022-09-22T04:04:06.133Z,7.82
2022-09-22T04:06:34.315Z,7.86
2022-09-22T04:09:01.729Z,7.88
2022-09-22T04:11:29.241Z,7.84
2022-09-22T04:13:55.955Z,7.85
2022-09-22T04:16:22.488Z,7.84
2022-09-22T04:18:49.862Z,7.84
2022-09-22T04:21:17.881Z,7.85
2022-09-22T04:23:45.585Z,7.84
2022-09-22T04:26:14.638Z,7.84
2022-09-22T04:28:41.072Z,7.82
2022-09-22T04:31:08.838Z,7.85
2022-09-22T04:33:36.323Z,7.86
2022-09-22T04:36:03.909Z,7.87
2022-09-22T04:38:31.693Z,7.86
2022-09-22T04:41:01.390Z,7.83
2022-09-22T04:43:29.153Z,7.85
2022-09-22T04:45:57.106Z,7.88
2022-09-22T04:48:24.791Z,7.89
2022-09-22T04:50:52.331Z,7.89
2022-09-22T04:53:20.101Z,7.88
2022-09-22T04:55:49.537Z,7.88
2022-09-22T04:58:17.213Z,7.87
2022-09-22T05:00:45.002Z,7.87
2022-09-22T05:03:18.704Z,7.91
2022-09-22T05:05:49.471Z,7.89
2022-09-22T05:08:17.082Z,7.94
2022-09-22T05:10:45.363Z,7.89
2022-09-22T05:13:14.540Z,7.91
2022-09-22T05:15:41.350Z,7.94
2022-09-22T05:18:08.032Z,7.92
2022-09-22T05:20:34.471Z,7.99
2022-09-22T05:23:00.907Z,7.97
2022-09-22T05:25:27.506Z,7.96
2022-09-22T05:27:55.135Z,7.97
2022-09-22T05:30:22.582Z,8.02
2022-09-22T05:32:49.726Z,8.03
2022-09-22T05:35:17.522Z,7.99
2022-09-22T05:37:59.268Z,8.03
2022-09-22T05:40:26.791Z,7.99
2022-09-22T05:42:53.910Z,8.05
2022-09-22T05:45:20.733Z,8.02
2022-09-22T05:47:47.223Z,7.99
2022-09-22T05:50:15.116Z,7.97
2022-09-22T05:52:41.567Z,8.02
2022-09-22T05:55:08.324Z,8.00
2022-09-22T05:57:34.840Z,8.05
2022-09-22T06:00:01.446Z,8.04
2022-09-22T06:02:27.965Z,8.09
2022-09-22T06:04:54.402Z,8.14
2022-09-22T06:07:21.595Z,8.25
2022-09-22T06:09:48.715Z,8.35
2022-09-22T06:12:15.576Z,8.46
2022-09-22T06:14:42.055Z,8.47
2022-09-22T06:17:10.632Z,8.49
2022-09-22T06:19:37.585Z,8.56
2022-09-22T06:22:05.686Z,8.54
2022-09-22T06:24:33.246Z,8.58
2022-09-22T06:27:00.981Z,8.61
2022-09-22T06:29:28.924Z,8.66
2022-09-22T06:31:56.709Z,8.61
2022-09-22T06:34:23.951Z,8.63
2022-09-22T06:36:50.483Z,8.64
2022-09-22T06:39:17.052Z,8.69
2022-09-22T06:41:44.841Z,8.76
2022-09-22T06:44:12.687Z,8.77
2022-09-22T06:46:39.366Z,8.68
2022-09-22T06:49:05.791Z,8.58
2022-09-22T06:51:33.532Z,8.66
2022-09-22T06:54:01.983Z,8.66
2022-09-22T06:56:29.657Z,8.75
2022-09-22T06:59:09.934Z,8.90
2022-09-22T07:01:37.515Z,8.90
2022-09-22T07:04:04.726Z,8.82
2022-09-22T07:06:31.192Z,8.88
2022-09-22T07:08:57.646Z,8.90
2022-09-22T07:11:24.131Z,8.99
2022-09-22T07:13:54.450Z,9.05
2022-09-22T07:16:22.368Z,9.11
2022-09-22T07:18:49.936Z,9.05
2022-09-22T07:21:27.767Z,9.12
2022-09-22T07:23:54.996Z,9.23
2022-09-22T07:26:23.337Z,9.32
2022-09-22T07:28:52.406Z,9.38
2022-09-22T07:31:19.127Z,9.58
2022-09-22T07:33:46.450Z,9.42
2022-09-22T07:36:14.327Z,9.30
2022-09-22T07:38:41.714Z,9.33
2022-09-22T07:41:12.269Z,9.51
2022-09-22T07:43:39.526Z,9.49
2022-09-22T07:46:06.314Z,9.42
2022-09-22T07:48:48.093Z,9.56
2022-09-22T07:51:20.162Z,9.66
2022-09-22T07:53:47.869Z,9.73
2022-09-22T07:56:15.786Z,9.78
2022-09-22T07:58:46.883Z,9.90
2022-09-22T08:01:14.454Z,10.06
2022-09-22T08:03:41.696Z,10.22
2022-09-22T08:06:12.962Z,10.05
2022-09-22T08:08:44.067Z,10.26
2022-09-22T08:11:15.188Z,10.49
2022-09-22T08:13:43.755Z,10.68
2022-09-22T08:16:11.895Z,10.63
2022-09-22T08:18:39.872Z,10.95
2022-09-22T08:21:07.252Z,10.85
2022-09-22T08:23:34.279Z,10.73
2022-09-22T08:26:04.830Z,10.94
2022-09-22T08:28:31.450Z,10.82
2022-09-22T08:30:58.955Z,10.91
2022-09-22T08:33:26.303Z,11.06
2022-09-22T08:35:53.387Z,11.08
2022-09-22T08:38:20.799Z,11.16
2022-09-22T08:40:49.449Z,11.27
2022-09-22T08:43:16.082Z,11.47
2022-09-22T08:45:44.462Z,11.40
2022-09-22T08:48:36.302Z,11.39
2022-09-22T08:51:25.028Z,11.52
2022-09-22T08:53:52.339Z,11.59
2022-09-22T08:56:22.255Z,11.61
2022-09-22T08:58:56.536Z,11.83
2022-09-22T09:01:42.624Z,11.95
2022-09-22T09:04:12.122Z,12.37
2022-09-22T09:07:06.596Z,12.66
2022-09-22T09:09:46.000Z,13.07
2022-09-22T09:12:31.016Z,13.16
2022-09-22T09:15:07.302Z,13.61
2022-09-22T09:17:36.719Z,14.17
2022-09-22T09:20:09.332Z,14.00
2022-09-22T09:22:43.701Z,13.83
2022-09-22T09:25:23.293Z,13.96
2022-09-22T09:27:54.662Z,13.99
2022-09-22T09:30:21.889Z,13.94
2022-09-22T09:33:01.631Z,13.37
2022-09-22T09:35:32.312Z,13.88
2022-09-22T09:37:59.771Z,14.35
2022-09-22T09:40:27.610Z,14.76
2022-09-22T09:43:03.336Z,14.69
2022-09-22T09:45:51.860Z,14.32
2022-09-22T09:48:21.562Z,14.34
2022-09-22T09:50:48.012Z,14.46
2022-09-22T09:53:24.993Z,14.11
2022-09-22T09:55:51.416Z,14.79
2022-09-22T09:58:37.798Z,14.86
2022-09-22T10:01:06.852Z,14.47
2022-09-22T10:03:34.306Z,14.81
2022-09-22T10:06:10.510Z,14.55
2022-09-22T10:08:47.436Z,15.24
2022-09-22T10:11:15.223Z,14.89
2022-09-22T10:13:42.758Z,15.27
2022-09-22T10:16:18.274Z,15.47
2022-09-22T10:18:44.802Z,15.59
2022-09-22T10:21:19.061Z,15.88
2022-09-22T10:23:46.738Z,16.33
2022-09-22T10:26:14.998Z,16.64
2022-09-22T10:28:41.428Z,16.42
2022-09-22T10:31:17.928Z,15.77
2022-09-22T10:33:54.879Z,16.54
2022-09-22T10:36:25.892Z,16.53
2022-09-22T10:38:57.350Z,16.11
2022-09-22T10:41:30.870Z,16.24
2022-09-22T10:44:03.106Z,16.47
2022-09-22T10:46:37.009Z,17.85
2022-09-22T10:49:04.307Z,19.25
2022-09-22T10:51:45.877Z,18.09
2022-09-22T10:54:18.769Z,17.69
2022-09-22T10:56:55.939Z,18.06
2022-09-22T10:59:32.541Z,18.14
2022-09-22T11:02:02.136Z,17.67
2022-09-22T11:04:34.608Z,17.88
2022-09-22T11:07:22.351Z,17.27
2022-09-22T11:10:19.264Z,17.47
2022-09-22T11:13:05.906Z,17.86
2022-09-22T11:15:35.221Z,17.65
2022-09-22T11:18:37.593Z,17.93
2022-09-22T11:21:08.692Z,18.04
2022-09-22T11:23:47.289Z,18.39
2022-09-22T11:26:21.354Z,19.04
2022-09-22T11:28:54.920Z,19.43
2022-09-22T11:31:37.592Z,18.80
2022-09-22T11:34:04.084Z,18.78
2022-09-22T11:36:51.737Z,19.40
2022-09-22T11:39:18.359Z,19.40
2022-09-22T11:41:52.124Z,19.66
2022-09-22T11:44:28.533Z,20.20
2022-09-22T11:47:14.124Z,20.10
2022-09-22T11:49:59.636Z,20.90
2022-09-22T11:52:45.613Z,22.14
2022-09-22T11:55:18.433Z,20.16
2022-09-22T11:57:47.942Z,20.28
2022-09-22T12:00:17.409Z,20.81
2022-09-22T12:03:02.083Z,21.23
2022-09-22T12:05:39.288Z,22.09
2022-09-22T12:08:08.419Z,22.58
2022-09-22T12:10:36.676Z,22.68
2022-09-22T12:13:05.254Z,22.96
2022-09-22T12:15:31.727Z,22.51
2022-09-22T12:18:06.147Z,21.47
2022-09-22T12:23:11.146Z,19.60
2022-09-22T12:25:57.563Z,19.34
2022-09-22T12:28:25.854Z,18.54
2022-09-22T12:31:15.508Z,18.62
2022-09-22T12:33:47.512Z,18.43
2022-09-22T12:36:15.130Z,18.33
2022-09-22T12:38:41.744Z,18.20
2022-09-22T12:41:08.436Z,18.97
2022-09-22T12:43:35.886Z,19.00
2022-09-22T12:46:04.750Z,19.13
2022-09-22T12:48:36.214Z,18.81
2022-09-22T12:51:29.761Z,18.24
2022-09-22T12:54:14.717Z,17.76
2022-09-22T12:56:46.472Z,17.34
2022-09-22T12:59:31.337Z,16.79
2022-09-22T13:02:16.235Z,16.77
2022-09-22T13:05:02.945Z,16.87
2022-09-22T13:07:42.568Z,16.50
2022-09-22T13:10:22.010Z,16.39
2022-09-22T13:13:11.921Z,16.14
2022-09-22T13:15:45.737Z,16.17
2022-09-22T13:18:30.679Z,15.77
2022-09-22T13:21:00.046Z,15.55
2022-09-22T13:23:26.831Z,15.39
2022-09-22T13:25:53.368Z,15.03
2022-09-22T13:28:22.010Z,14.92
2022-09-22T13:31:17.970Z,14.76
2022-09-22T13:33:44.627Z,14.60
2022-09-22T13:36:15.383Z,14.57
2022-09-22T13:38:43.100Z,14.43
2022-09-22T13:41:29.759Z,14.49
2022-09-22T13:43:58.924Z,14.49
2022-09-22T13:46:28.203Z,14.47
2022-09-22T13:48:57.113Z,14.42
2022-09-22T13:51:25.915Z,14.37
2022-09-22T13:53:53.869Z,14.52
2022-09-22T13:56:22.118Z,14.54
2022-09-22T13:58:50.118Z,14.54
2022-09-22T14:01:20.768Z,14.44
2022-09-22T14:03:47.969Z,14.43
2022-09-22T14:06:16.043Z,14.49
2022-09-22T14:08:43.561Z,14.46
2022-09-22T14:11:18.352Z,14.59
2022-09-22T14:13:57.878Z,14.70
2022-09-22T14:16:36.271Z,14.73
2022-09-22T14:19:15.027Z,14.64
2022-09-22T14:21:49.719Z,14.80
2022-09-22T14:24:16.606Z,15.26
2022-09-22T14:26:50.195Z,15.32
2022-09-22T14:29:25.220Z,16.16
2022-09-22T14:32:14.680Z,16.22
2022-09-22T14:34:45.601Z,17.05
2022-09-22T14:37:29.177Z,17.51
2022-09-22T14:39:57.200Z,17.64
2022-09-22T14:42:25.843Z,18.39
2022-09-22T14:44:52.436Z,18.73
2022-09-22T14:47:26.799Z,18.78
2022-09-22T14:50:07.113Z,17.67
2022-09-22T14:52:35.709Z,18.32
2022-09-22T14:55:08.232Z,18.43
2022-09-22T14:57:35.283Z,18.10
2022-09-22T15:00:20.977Z,18.47
2022-09-22T15:02:52.697Z,18.41
2022-09-22T15:05:29.363Z,18.79
2022-09-22T15:07:56.648Z,18.65
2022-09-22T15:10:25.635Z,19.16
2022-09-22T15:12:52.590Z,19.05
2022-09-22T15:15:23.624Z,18.44
2022-09-22T15:18:09.816Z,19.50
2022-09-22T15:20:42.975Z,19.16
2022-09-22T15:23:21.498Z,18.21
2022-09-22T15:25:48.271Z,18.16
2022-09-22T15:28:16.392Z,17.68
2022-09-22T15:30:44.699Z,17.06
2022-09-22T15:33:14.711Z,16.94
2022-09-22T15:35:45.612Z,16.75
2022-09-22T15:38:17.413Z,16.37
2022-09-22T15:40:45.318Z,15.90
2022-09-22T15:43:13.605Z,15.74
2022-09-22T15:45:49.371Z,15.72
2022-09-22T15:48:21.216Z,15.67
2022-09-22T15:50:47.630Z,15.37
2022-09-22T15:53:14.433Z,15.00
2022-09-22T15:55:40.837Z,14.69
2022-09-22T15:58:10.150Z,14.38
2022-09-22T16:00:36.742Z,14.19
2022-09-22T16:03:06.014Z,14.05
2022-09-22T16:05:34.455Z,13.83
2022-09-22T16:08:00.994Z,13.64
2022-09-22T16:10:27.416Z,13.47
2022-09-22T16:12:53.844Z,13.31
2022-09-22T16:15:20.279Z,13.21
2022-09-22T16:17:46.769Z,13.13
2022-09-22T16:20:14.831Z,13.12
2022-09-22T16:22:41.736Z,12.98
2022-09-22T16:25:09.970Z,12.87
2022-09-22T16:27:37.834Z,12.63
2022-09-22T16:30:04.455Z,12.43
2022-09-22T16:32:32.519Z,12.23
2022-09-22T16:34:59.009Z,12.08
2022-09-22T16:37:25.813Z,11.96
2022-09-22T16:39:52.249Z,11.84
2022-09-22T16:42:23.385Z,11.81
2022-09-22T16:44:50.161Z,11.73
2022-09-22T16:47:21.114Z,11.66
2022-09-22T16:49:49.544Z,11.56
2022-09-22T16:52:16.030Z,11.48
2022-09-22T16:54:42.471Z,11.45
2022-09-22T16:57:08.900Z,11.42
2022-09-22T16:59:35.372Z,11.43
2022-09-22T17:02:01.865Z,11.40
2022-09-22T17:04:28.532Z,11.33
2022-09-22T17:06:54.954Z,11.31
2022-09-22T17:09:22.805Z,11.31
2022-09-22T17:11:49.391Z,11.29
2022-09-22T17:14:22.790Z,11.28
2022-09-22T17:16:52.091Z,11.33
2022-09-22T17:19:19.707Z,11.41
2022-09-22T17:21:47.359Z,11.45
2022-09-22T17:24:14.867Z,11.43
2022-09-22T17:26:47.356Z,11.44
2022-09-22T17:29:15.916Z,11.44
2022-09-22T17:31:43.136Z,11.37
2022-09-22T17:34:10.535Z,11.23
2022-09-22T17:36:37.529Z,11.12
2022-09-22T17:39:04.419Z,11.08
2022-09-22T17:41:32.965Z,11.07
2022-09-22T17:44:03.365Z,11.05
2022-09-22T17:46:31.637Z,11.02
2022-09-22T17:49:16.684Z,11.02
2022-09-22T17:52:05.592Z,10.97
2022-09-22T17:54:50.347Z,10.88
2022-09-22T17:57:37.048Z,10.86
2022-09-22T18:00:04.472Z,10.84
2022-09-22T18:02:37.438Z,10.82
2022-09-22T18:05:04.614Z,10.81
2022-09-22T18:07:33.117Z,10.80
2022-09-22T18:09:59.636Z,10.79
2022-09-22T18:12:26.041Z,10.78
2022-09-22T18:14:53.681Z,10.77
2022-09-22T18:17:22.861Z,10.71
2022-09-22T18:19:49.415Z,10.68
2022-09-22T18:22:20.979Z,10.66
2022-09-22T18:24:50.832Z,10.62
2022-09-22T18:27:19.220Z,10.60
2022-09-22T18:29:47.209Z,10.57
2022-09-22T18:32:13.727Z,10.52
2022-09-22T18:34:40.585Z,10.48
2022-09-22T18:37:08.648Z,10.48
2022-09-22T18:39:35.500Z,10.47
2022-09-22T18:42:01.999Z,10.43
2022-09-22T18:44:29.123Z,10.39
2022-09-22T18:46:56.423Z,10.35
2022-09-22T18:49:23.141Z,10.34
2022-09-22T18:51:49.632Z,10.34
2022-09-22T18:54:16.967Z,10.32
2022-09-22T18:56:47.451Z,10.31
2022-09-22T18:59:18.739Z,10.34
2022-09-22T19:01:46.230Z,10.32
2022-09-22T19:04:17.116Z,10.30
2022-09-22T19:07:02.791Z,10.25
2022-09-22T19:09:29.378Z,10.22
2022-09-22T19:11:55.898Z,10.23
2022-09-22T19:14:22.369Z,10.23
2022-09-22T19:16:49.090Z,10.24
2022-09-22T19:19:16.489Z,10.19
2022-09-22T19:21:42.911Z,10.21
2022-09-22T19:24:10.655Z,10.23
2022-09-22T19:26:37.778Z,10.25
2022-09-22T19:29:05.322Z,10.26
2022-09-22T19:31:32.683Z,10.25
2022-09-22T19:33:59.591Z,10.29
2022-09-22T19:36:26.034Z,10.33
2022-09-22T19:38:52.487Z,10.34
2022-09-22T19:41:19.001Z,10.34
2022-09-22T19:43:45.440Z,10.33
2022-09-22T19:46:11.931Z,10.33
2022-09-22T19:48:38.479Z,10.30
2022-09-22T19:51:05.130Z,10.30
2022-09-22T19:53:31.765Z,10.30
2022-09-22T19:55:58.340Z,10.28
2022-09-22T19:58:25.418Z,10.31
2022-09-22T20:00:52.360Z,10.34
2022-09-22T20:03:19.247Z,10.33
2022-09-22T20:05:46.450Z,10.34
2022-09-22T20:08:15.872Z,10.32
2022-09-22T20:10:44.536Z,10.30
2022-09-22T20:13:31.345Z,10.29
2022-09-22T20:15:58.217Z,10.25
2022-09-22T20:18:25.169Z,10.26
2022-09-22T20:20:52.394Z,10.25
2022-09-22T20:23:20.730Z,10.18
2022-09-22T20:25:48.436Z,10.10
2022-09-22T20:28:14.896Z,10.07
2022-09-22T20:30:42.770Z,10.05
2022-09-22T20:33:35.468Z,10.03
2022-09-22T20:36:01.952Z,9.94
2022-09-22T20:38:28.438Z,9.89
2022-09-22T20:40:55.006Z,9.84
2022-09-22T20:43:21.475Z,9.80
2022-09-22T20:45:47.903Z,9.79
2022-09-22T20:48:18.634Z,9.78
2022-09-22T20:50:46.058Z,9.73
2022-09-22T20:53:12.899Z,9.72
2022-09-22T20:55:39.326Z,9.67
2022-09-22T20:58:05.784Z,9.64
2022-09-22T21:00:32.205Z,9.60
2022-09-22T21:03:00.971Z,9.59
2022-09-22T21:05:27.905Z,9.57
2022-09-22T21:08:14.311Z,9.55
2022-09-22T21:10:40.752Z,9.52
2022-09-22T21:13:07.160Z,9.49
2022-09-22T21:15:33.679Z,9.46
2022-09-22T21:18:01.539Z,9.44
2022-09-22T21:20:29.763Z,9.43
2022-09-22T21:22:57.853Z,9.40
2022-09-22T21:25:25.412Z,9.39
2022-09-22T21:27:53.187Z,9.38
2022-09-22T21:30:21.051Z,9.39
2022-09-22T21:32:48.808Z,9.37
2022-09-22T21:35:19.901Z,9.35
2022-09-22T21:37:47.412Z,9.34
2022-09-22T21:40:15.432Z,9.33
2022-09-22T21:42:41.919Z,9.31
2022-09-22T21:45:09.747Z,9.30
2022-09-22T21:47:37.759Z,9.27
2022-09-22T21:50:06.055Z,9.23
2022-09-22T21:52:33.715Z,9.18
2022-09-22T21:55:01.351Z,9.16
2022-09-22T21:57:29.159Z,9.17
2022-09-22T21:59:56.952Z,9.17
2022-09-22T22:02:24.834Z,9.16
2022-09-22T22:04:55.705Z,9.14
2022-09-22T22:07:23.473Z,9.14
2022-09-22T22:09:51.296Z,9.10
2022-09-22T22:12:21.449Z,9.08
2022-09-22T22:14:49.082Z,9.04
2022-09-22T22:17:15.618Z,9.00
2022-09-22T22:19:42.050Z,8.98
2022-09-22T22:22:09.590Z,8.96
2022-09-22T22:24:42.328Z,8.93
2022-09-22T22:27:10.455Z,8.92
2022-09-22T22:29:38.733Z,8.91
2022-09-22T22:32:07.976Z,8.87
2022-09-22T22:34:35.762Z,8.87
2022-09-22T22:37:04.746Z,8.85
2022-09-22T22:39:32.610Z,8.81
2022-09-22T22:42:00.249Z,8.77
2022-09-22T22:44:28.120Z,8.75
2022-09-22T22:46:54.563Z,8.74
2022-09-22T22:49:21.082Z,8.73
2022-09-22T22:51:49.902Z,8.70
2022-09-22T22:54:17.688Z,8.68
2022-09-22T22:56:49.027Z,8.67
2022-09-22T22:59:19.222Z,8.64
2022-09-22T23:01:47.129Z,8.63
2022-09-22T23:04:16.725Z,8.62
2022-09-22T23:06:44.968Z,8.62
2022-09-22T23:09:14.235Z,8.61
2022-09-22T23:11:42.658Z,8.59
2022-09-22T23:14:11.576Z,8.56
2022-09-22T23:16:40.013Z,8.57
2022-09-22T23:19:08.942Z,8.55
2022-09-22T23:21:36.199Z,8.50
2022-09-22T23:24:06.943Z,8.44
2022-09-22T23:26:34.939Z,8.42
2022-09-22T23:29:03.928Z,8.37
2022-09-22T23:31:31.907Z,8.35
2022-09-22T23:33:59.291Z,8.34
2022-09-22T23:36:28.487Z,8.31
2022-09-22T23:38:55.756Z,8.30
2022-09-22T23:41:22.337Z,8.29
2022-09-22T23:43:50.106Z,8.30
2022-09-22T23:46:17.745Z,8.29
2022-09-22T23:48:47.562Z,8.28
2022-09-22T23:51:15.132Z,8.28
2022-09-22T23:53:43.187Z,8.26
2022-09-22T23:56:10.721Z,8.25
2022-09-22T23:58:39.048Z,8.23
